sensor_id;sensor_type;location;lat;lon;timestamp;pressure;altitude;pressure_sealevel;temperature;humidity
59272;BME280;45043;51.068;7.026;2023-12-20T00:00:43;100363.69;;;3.70;83.89
59272;BME280;45043;51.068;7.026;2023-12-20T00:03:44;100372.41;;;3.70;83.98
59272;BME280;45043;51.068;7.026;2023-12-20T00:06:46;100369.47;;;3.73;84.66
59272;BME280;45043;51.068;7.026;2023-12-20T00:09:47;100361.44;;;3.75;84.14
59272;BME280;45043;51.068;7.026;2023-12-20T00:12:48;100371.19;;;3.83;84.16
59272;BME280;45043;51.068;7.026;2023-12-20T00:15:48;100366.59;;;3.85;84.34
59272;BME280;45043;51.068;7.026;2023-12-20T00:18:49;100371.22;;;3.91;84.22
59272;BME280;45043;51.068;7.026;2023-12-20T00:21:50;100387.22;;;3.98;84.17
59272;BME280;45043;51.068;7.026;2023-12-20T00:24:51;100386.06;;;4.00;83.75
59272;BME280;45043;51.068;7.026;2023-12-20T00:27:52;100397.00;;;3.87;83.46
59272;BME280;45043;51.068;7.026;2023-12-20T00:30:53;100393.63;;;3.77;83.63
59272;BME280;45043;51.068;7.026;2023-12-20T00:33:54;100389.97;;;3.70;83.86
59272;BME280;45043;51.068;7.026;2023-12-20T00:36:56;100387.13;;;3.63;83.73
59272;BME280;45043;51.068;7.026;2023-12-20T00:39:57;100390.56;;;3.64;83.45
59272;BME280;45043;51.068;7.026;2023-12-20T00:42:59;100385.53;;;3.70;83.64
59272;BME280;45043;51.068;7.026;2023-12-20T00:46:00;100396.25;;;3.77;82.71
59272;BME280;45043;51.068;7.026;2023-12-20T00:49:00;100402.56;;;3.84;82.42
59272;BME280;45043;51.068;7.026;2023-12-20T00:52:01;100406.16;;;3.83;82.06
59272;BME280;45043;51.068;7.026;2023-12-20T00:55:02;100404.19;;;3.85;81.32
59272;BME280;45043;51.068;7.026;2023-12-20T00:58:04;100401.25;;;3.88;81.61
59272;BME280;45043;51.068;7.026;2023-12-20T01:01:06;100408.63;;;3.85;81.16
59272;BME280;45043;51.068;7.026;2023-12-20T01:04:06;100400.09;;;3.83;81.13
59272;BME280;45043;51.068;7.026;2023-12-20T01:07:07;100403.84;;;3.80;80.66
59272;BME280;45043;51.068;7.026;2023-12-20T01:10:08;100405.66;;;3.80;80.41
59272;BME280;45043;51.068;7.026;2023-12-20T01:13:09;100405.78;;;3.78;80.57
59272;BME280;45043;51.068;7.026;2023-12-20T01:16:10;100404.31;;;3.76;80.17
59272;BME280;45043;51.068;7.026;2023-12-20T01:22:49;100420.91;;;3.76;79.91
59272;BME280;45043;51.068;7.026;2023-12-20T01:25:50;100412.50;;;3.72;80.24
59272;BME280;45043;51.068;7.026;2023-12-20T01:28:51;100419.56;;;3.72;80.25
59272;BME280;45043;51.068;7.026;2023-12-20T01:31:52;100426.75;;;3.70;79.81
59272;BME280;45043;51.068;7.026;2023-12-20T01:34:53;100434.13;;;3.66;79.93
59272;BME280;45043;51.068;7.026;2023-12-20T01:37:55;100412.44;;;3.64;80.08
59272;BME280;45043;51.068;7.026;2023-12-20T01:40:57;100417.81;;;3.63;79.94
59272;BME280;45043;51.068;7.026;2023-12-20T01:43:58;100432.94;;;3.61;79.97
59272;BME280;45043;51.068;7.026;2023-12-20T01:46:59;100434.22;;;3.57;79.59
59272;BME280;45043;51.068;7.026;2023-12-20T01:50:01;100446.13;;;3.51;79.85
59272;BME280;45043;51.068;7.026;2023-12-20T01:53:05;100456.13;;;3.47;79.82
59272;BME280;45043;51.068;7.026;2023-12-20T01:56:09;100449.69;;;3.42;79.80
59272;BME280;45043;51.068;7.026;2023-12-20T01:59:11;100450.50;;;3.42;80.07
59272;BME280;45043;51.068;7.026;2023-12-20T02:02:13;100441.94;;;3.40;79.90
59272;BME280;45043;51.068;7.026;2023-12-20T02:05:15;100458.25;;;3.34;79.84
59272;BME280;45043;51.068;7.026;2023-12-20T02:08:16;100471.84;;;3.30;79.55
59272;BME280;45043;51.068;7.026;2023-12-20T02:11:16;100443.69;;;3.22;79.15
59272;BME280;45043;51.068;7.026;2023-12-20T02:14:17;100474.84;;;3.17;79.41
59272;BME280;45043;51.068;7.026;2023-12-20T02:17:18;100459.38;;;3.14;79.05
59272;BME280;45043;51.068;7.026;2023-12-20T02:20:19;100471.81;;;3.12;78.88
59272;BME280;45043;51.068;7.026;2023-12-20T02:23:20;100471.44;;;3.07;78.67
59272;BME280;45043;51.068;7.026;2023-12-20T02:26:22;100462.38;;;3.01;78.20
59272;BME280;45043;51.068;7.026;2023-12-20T02:29:23;100460.44;;;2.93;78.35
59272;BME280;45043;51.068;7.026;2023-12-20T02:32:24;100456.78;;;2.86;78.24
59272;BME280;45043;51.068;7.026;2023-12-20T02:35:28;100461.19;;;2.86;77.91
59272;BME280;45043;51.068;7.026;2023-12-20T02:38:29;100465.63;;;2.85;77.53
59272;BME280;45043;51.068;7.026;2023-12-20T02:41:30;100475.16;;;2.86;77.58
59272;BME280;45043;51.068;7.026;2023-12-20T02:44:31;100479.56;;;2.86;77.69
59272;BME280;45043;51.068;7.026;2023-12-20T02:47:33;100469.22;;;2.84;77.64
59272;BME280;45043;51.068;7.026;2023-12-20T02:50:33;100471.16;;;2.82;77.33
59272;BME280;45043;51.068;7.026;2023-12-20T02:53:34;100483.72;;;2.79;77.75
59272;BME280;45043;51.068;7.026;2023-12-20T02:56:35;100474.66;;;2.73;77.28
59272;BME280;45043;51.068;7.026;2023-12-20T02:59:36;100478.25;;;2.72;77.27
59272;BME280;45043;51.068;7.026;2023-12-20T03:02:37;100481.53;;;2.74;77.35
59272;BME280;45043;51.068;7.026;2023-12-20T03:05:38;100472.41;;;2.78;77.22
59272;BME280;45043;51.068;7.026;2023-12-20T03:08:39;100477.38;;;2.81;77.23
59272;BME280;45043;51.068;7.026;2023-12-20T03:11:41;100474.47;;;2.84;77.06
59272;BME280;45043;51.068;7.026;2023-12-20T03:14:43;100470.84;;;2.85;76.93
59272;BME280;45043;51.068;7.026;2023-12-20T03:17:45;100482.91;;;2.78;76.88
59272;BME280;45043;51.068;7.026;2023-12-20T03:20:46;100474.09;;;2.79;76.92
59272;BME280;45043;51.068;7.026;2023-12-20T03:23:48;100481.25;;;2.77;76.69
59272;BME280;45043;51.068;7.026;2023-12-20T03:26:49;100478.25;;;2.72;76.52
59272;BME280;45043;51.068;7.026;2023-12-20T03:29:49;100471.88;;;2.74;76.94
59272;BME280;45043;51.068;7.026;2023-12-20T03:32:51;100474.66;;;2.73;77.05
59272;BME280;45043;51.068;7.026;2023-12-20T03:35:51;100459.19;;;2.70;76.45
59272;BME280;45043;51.068;7.026;2023-12-20T03:38:52;100460.84;;;2.71;76.52
59272;BME280;45043;51.068;7.026;2023-12-20T03:41:54;100468.31;;;2.75;76.69
59272;BME280;45043;51.068;7.026;2023-12-20T03:44:55;100462.25;;;2.75;76.61
59272;BME280;45043;51.068;7.026;2023-12-20T03:47:56;100453.97;;;2.70;76.21
59272;BME280;45043;51.068;7.026;2023-12-20T03:50:57;100462.81;;;2.69;76.47
59272;BME280;45043;51.068;7.026;2023-12-20T03:53:58;100469.97;;;2.67;75.78
59272;BME280;45043;51.068;7.026;2023-12-20T03:56:59;100468.34;;;2.66;76.72
59272;BME280;45043;51.068;7.026;2023-12-20T04:00:00;100465.72;;;2.66;75.96
59272;BME280;45043;51.068;7.026;2023-12-20T04:03:12;100459.50;;;2.67;76.17
59272;BME280;45043;51.068;7.026;2023-12-20T04:06:19;100468.06;;;2.69;76.32
59272;BME280;45043;51.068;7.026;2023-12-20T04:09:20;100462.53;;;2.72;75.82
59272;BME280;45043;51.068;7.026;2023-12-20T04:12:20;100466.41;;;2.68;75.79
59272;BME280;45043;51.068;7.026;2023-12-20T04:15:21;100468.06;;;2.69;75.48
59272;BME280;45043;51.068;7.026;2023-12-20T04:18:22;100450.34;;;2.71;75.46
59272;BME280;45043;51.068;7.026;2023-12-20T04:21:23;100459.63;;;2.75;75.25
59272;BME280;45043;51.068;7.026;2023-12-20T04:24:24;100462.25;;;2.75;75.30
59272;BME280;45043;51.068;7.026;2023-12-20T04:27:25;100456.66;;;2.78;75.75
59272;BME280;45043;51.068;7.026;2023-12-20T04:30:26;100468.16;;;2.77;75.33
59272;BME280;45043;51.068;7.026;2023-12-20T04:33:27;100458.53;;;2.68;75.64
59272;BME280;45043;51.068;7.026;2023-12-20T04:36:27;100466.41;;;2.68;75.52
59272;BME280;45043;51.068;7.026;2023-12-20T04:39:30;100481.44;;;2.66;75.09
59272;BME280;45043;51.068;7.026;2023-12-20T04:42:31;100475.66;;;2.62;75.78
59272;BME280;45043;51.068;7.026;2023-12-20T04:45:32;100490.59;;;2.62;75.76
59272;BME280;45043;51.068;7.026;2023-12-20T04:48:33;100473.03;;;2.62;75.63
59272;BME280;45043;51.068;7.026;2023-12-20T04:51:34;100495.81;;;2.62;75.44
59272;BME280;45043;51.068;7.026;2023-12-20T04:54:35;100493.50;;;2.59;75.39
59272;BME280;45043;51.068;7.026;2023-12-20T04:57:36;100476.22;;;2.56;75.08
59272;BME280;45043;51.068;7.026;2023-12-20T05:00:37;100483.28;;;2.56;75.70
59272;BME280;45043;51.068;7.026;2023-12-20T05:03:39;100484.09;;;2.56;75.44
59272;BME280;45043;51.068;7.026;2023-12-20T05:06:40;100491.31;;;2.54;75.72
59272;BME280;45043;51.068;7.026;2023-12-20T05:09:41;100472.25;;;2.52;75.35
59272;BME280;45043;51.068;7.026;2023-12-20T05:12:42;100484.25;;;2.55;75.73
59272;BME280;45043;51.068;7.026;2023-12-20T05:15:44;100470.59;;;2.51;75.51
59272;BME280;45043;51.068;7.026;2023-12-20T05:18:46;100486.34;;;2.51;75.27
59272;BME280;45043;51.068;7.026;2023-12-20T05:21:47;100504.16;;;2.47;75.14
59272;BME280;45043;51.068;7.026;2023-12-20T05:24:48;100482.63;;;2.54;75.99
59272;BME280;45043;51.068;7.026;2023-12-20T05:27:50;100475.56;;;2.82;76.28
59272;BME280;45043;51.068;7.026;2023-12-20T05:30:51;100479.31;;;3.07;75.18
59272;BME280;45043;51.068;7.026;2023-12-20T05:33:52;100475.81;;;3.16;75.18
59272;BME280;45043;51.068;7.026;2023-12-20T05:36:53;100474.91;;;3.25;74.47
59272;BME280;45043;51.068;7.026;2023-12-20T05:39:54;100482.50;;;3.28;74.51
59272;BME280;45043;51.068;7.026;2023-12-20T05:42:55;100471.00;;;3.29;74.01
59272;BME280;45043;51.068;7.026;2023-12-20T05:45:56;100480.41;;;3.32;73.79
59272;BME280;45043;51.068;7.026;2023-12-20T05:48:58;100483.59;;;3.53;73.27
59272;BME280;45043;51.068;7.026;2023-12-20T05:51:59;100472.47;;;3.59;73.05
59272;BME280;45043;51.068;7.026;2023-12-20T05:55:01;100482.97;;;3.77;72.94
59272;BME280;45043;51.068;7.026;2023-12-20T05:58:02;100475.63;;;4.07;72.75
59272;BME280;45043;51.068;7.026;2023-12-20T06:01:04;100467.91;;;4.31;72.00
59272;BME280;45043;51.068;7.026;2023-12-20T06:04:05;100468.81;;;4.48;71.90
59272;BME280;45043;51.068;7.026;2023-12-20T06:07:06;100471.47;;;4.56;71.00
59272;BME280;45043;51.068;7.026;2023-12-20T06:10:08;100466.41;;;4.63;70.54
59272;BME280;45043;51.068;7.026;2023-12-20T06:13:09;100466.78;;;4.68;69.50
59272;BME280;45043;51.068;7.026;2023-12-20T06:16:10;100489.34;;;4.79;69.40
59272;BME280;45043;51.068;7.026;2023-12-20T06:19:10;100489.41;;;4.87;68.81
59272;BME280;45043;51.068;7.026;2023-12-20T06:22:11;100476.25;;;4.87;68.61
59272;BME280;45043;51.068;7.026;2023-12-20T06:25:12;100487.09;;;4.92;68.40
59272;BME280;45043;51.068;7.026;2023-12-20T06:28:13;100494.84;;;4.93;67.70
59272;BME280;45043;51.068;7.026;2023-12-20T06:31:18;100493.22;;;5.01;67.60
59272;BME280;45043;51.068;7.026;2023-12-20T06:34:19;100495.22;;;5.07;67.33
59272;BME280;45043;51.068;7.026;2023-12-20T06:37:19;100497.69;;;5.08;66.87
59272;BME280;45043;51.068;7.026;2023-12-20T06:40:20;100493.25;;;5.09;66.73
59272;BME280;45043;51.068;7.026;2023-12-20T06:43:21;100482.06;;;5.07;66.14
59272;BME280;45043;51.068;7.026;2023-12-20T06:46:22;100489.94;;;5.07;66.22
59272;BME280;45043;51.068;7.026;2023-12-20T06:49:23;100499.50;;;5.08;66.12
59272;BME280;45043;51.068;7.026;2023-12-20T06:52:23;100494.91;;;5.18;65.95
59272;BME280;45043;51.068;7.026;2023-12-20T06:55:23;100494.28;;;5.16;65.77
59272;BME280;45043;51.068;7.026;2023-12-20T06:58:25;100473.53;;;5.13;65.78
59272;BME280;45043;51.068;7.026;2023-12-20T07:01:26;100476.97;;;5.13;65.44
59272;BME280;45043;51.068;7.026;2023-12-20T07:04:27;100495.09;;;5.16;65.43
59272;BME280;45043;51.068;7.026;2023-12-20T07:07:28;100483.25;;;5.12;65.39
59272;BME280;45043;51.068;7.026;2023-12-20T07:10:29;100501.16;;;5.09;65.39
59272;BME280;45043;51.068;7.026;2023-12-20T07:13:30;100490.13;;;5.05;65.10
59272;BME280;45043;51.068;7.026;2023-12-20T07:16:31;100484.69;;;5.07;64.99
59272;BME280;45043;51.068;7.026;2023-12-20T07:19:32;100490.16;;;5.13;64.45
59272;BME280;45043;51.068;7.026;2023-12-20T07:22:33;100496.22;;;5.14;64.61
59272;BME280;45043;51.068;7.026;2023-12-20T07:25:34;100507.91;;;5.11;64.68
59272;BME280;45043;51.068;7.026;2023-12-20T07:28:35;100504.31;;;5.12;64.51
59272;BME280;45043;51.068;7.026;2023-12-20T07:31:36;100496.53;;;5.11;64.11
59272;BME280;45043;51.068;7.026;2023-12-20T07:34:37;100484.06;;;5.13;63.85
59272;BME280;45043;51.068;7.026;2023-12-20T07:37:39;100490.16;;;5.13;63.91
59272;BME280;45043;51.068;7.026;2023-12-20T07:40:41;100492.91;;;5.12;64.10
59272;BME280;45043;51.068;7.026;2023-12-20T07:43:42;100498.53;;;5.09;63.54
59272;BME280;45043;51.068;7.026;2023-12-20T07:50:03;100499.66;;;5.06;63.71
59272;BME280;45043;51.068;7.026;2023-12-20T07:53:04;100512.97;;;5.05;63.76
59272;BME280;45043;51.068;7.026;2023-12-20T07:56:19;100494.41;;;5.06;63.56
59272;BME280;45043;51.068;7.026;2023-12-20T07:59:20;100491.56;;;5.00;63.27
59272;BME280;45043;51.068;7.026;2023-12-20T08:02:21;100503.06;;;4.90;63.52
59272;BME280;45043;51.068;7.026;2023-12-20T08:05:21;100495.13;;;4.82;63.58
59272;BME280;45043;51.068;7.026;2023-12-20T08:08:22;100523.56;;;4.79;63.46
59272;BME280;45043;51.068;7.026;2023-12-20T08:11:27;100521.72;;;4.71;63.56
59272;BME280;45043;51.068;7.026;2023-12-20T08:14:28;100519.75;;;4.73;63.80
59272;BME280;45043;51.068;7.026;2023-12-20T08:17:29;100509.84;;;4.67;63.68
59272;BME280;45043;51.068;7.026;2023-12-20T08:20:31;100503.91;;;4.57;63.75
59272;BME280;45043;51.068;7.026;2023-12-20T08:23:32;100497.97;;;4.55;63.73
59272;BME280;45043;51.068;7.026;2023-12-20T08:26:33;100537.16;;;4.66;63.53
59272;BME280;45043;51.068;7.026;2023-12-20T08:29:33;100515.81;;;4.69;63.56
59272;BME280;45043;51.068;7.026;2023-12-20T08:32:35;100509.03;;;4.66;63.35
59272;BME280;45043;51.068;7.026;2023-12-20T08:35:36;100522.06;;;4.68;63.51
59272;BME280;45043;51.068;7.026;2023-12-20T08:38:37;100540.00;;;4.73;63.40
59272;BME280;45043;51.068;7.026;2023-12-20T08:41:38;100508.56;;;4.71;63.33
59272;BME280;45043;51.068;7.026;2023-12-20T08:44:39;100539.38;;;4.53;63.17
59272;BME280;45043;51.068;7.026;2023-12-20T08:47:40;100531.38;;;4.10;63.51
59272;BME280;45043;51.068;7.026;2023-12-20T08:50:41;100518.47;;;3.81;64.50
59272;BME280;45043;51.068;7.026;2023-12-20T08:53:43;100537.31;;;3.59;65.16
59272;BME280;45043;51.068;7.026;2023-12-20T08:56:45;100537.34;;;3.31;65.98
59272;BME280;45043;51.068;7.026;2023-12-20T08:59:47;100523.06;;;3.16;66.07
59272;BME280;45043;51.068;7.026;2023-12-20T09:02:48;100522.28;;;3.06;66.92
59272;BME280;45043;51.068;7.026;2023-12-20T09:05:48;100516.25;;;2.95;67.13
59272;BME280;45043;51.068;7.026;2023-12-20T09:08:49;100537.81;;;2.89;67.54
59272;BME280;45043;51.068;7.026;2023-12-20T09:11:50;100523.53;;;2.74;68.02
59272;BME280;45043;51.068;7.026;2023-12-20T09:14:52;100525.06;;;2.67;68.23
59272;BME280;45043;51.068;7.026;2023-12-20T09:17:53;100518.34;;;2.64;68.77
59272;BME280;45043;51.068;7.026;2023-12-20T09:20:54;100502.34;;;2.58;68.71
59272;BME280;45043;51.068;7.026;2023-12-20T09:23:55;100508.13;;;2.51;69.18
59272;BME280;45043;51.068;7.026;2023-12-20T09:26:57;100498.34;;;2.54;69.39
59272;BME280;45043;51.068;7.026;2023-12-20T09:29:58;100511.47;;;2.54;69.97
59272;BME280;45043;51.068;7.026;2023-12-20T09:32:58;100499.28;;;2.52;69.89
59272;BME280;45043;51.068;7.026;2023-12-20T09:35:59;100505.25;;;2.55;69.75
59272;BME280;45043;51.068;7.026;2023-12-20T09:39:00;100515.03;;;2.52;69.67
59272;BME280;45043;51.068;7.026;2023-12-20T09:42:05;100516.44;;;2.47;70.56
59272;BME280;45043;51.068;7.026;2023-12-20T09:45:12;100522.50;;;2.47;70.46
59272;BME280;45043;51.068;7.026;2023-12-20T09:48:17;100519.88;;;2.47;70.69
59272;BME280;45043;51.068;7.026;2023-12-20T09:51:18;100506.63;;;2.49;70.19
59272;BME280;45043;51.068;7.026;2023-12-20T09:54:21;100524.31;;;2.47;70.72
59272;BME280;45043;51.068;7.026;2023-12-20T09:57:22;100508.56;;;2.47;70.21
59272;BME280;45043;51.068;7.026;2023-12-20T10:00:22;100502.50;;;2.46;70.81
59272;BME280;45043;51.068;7.026;2023-12-20T10:03:25;100512.03;;;2.47;70.62
59272;BME280;45043;51.068;7.026;2023-12-20T10:06:30;100539.06;;;2.48;70.44
59272;BME280;45043;51.068;7.026;2023-12-20T10:09:32;100498.91;;;2.47;70.90
59272;BME280;45043;51.068;7.026;2023-12-20T10:12:34;100493.00;;;2.45;71.14
59272;BME280;45043;51.068;7.026;2023-12-20T10:15:36;100536.19;;;2.41;70.71
59272;BME280;45043;51.068;7.026;2023-12-20T10:18:38;100498.81;;;2.39;71.01
59272;BME280;45043;51.068;7.026;2023-12-20T10:21:41;100479.88;;;2.45;70.96
59272;BME280;45043;51.068;7.026;2023-12-20T10:24:53;100498.91;;;2.47;71.14
59272;BME280;45043;51.068;7.026;2023-12-20T10:28:13;100506.78;;;2.47;71.01
59272;BME280;45043;51.068;7.026;2023-12-20T10:31:32;100486.34;;;2.51;70.58
59272;BME280;45043;51.068;7.026;2023-12-20T10:34:32;100484.00;;;2.48;70.93
59272;BME280;45043;51.068;7.026;2023-12-20T10:37:39;100491.88;;;2.48;71.25
59272;BME280;45043;51.068;7.026;2023-12-20T10:40:41;100474.50;;;2.47;70.89
59272;BME280;45043;51.068;7.026;2023-12-20T10:43:43;100463.72;;;2.50;70.89
59272;BME280;45043;51.068;7.026;2023-12-20T10:46:45;100469.25;;;2.47;71.13
59272;BME280;45043;51.068;7.026;2023-12-20T10:49:52;100450.44;;;2.51;71.39
59272;BME280;45043;51.068;7.026;2023-12-20T10:52:54;100495.13;;;2.60;70.97
59272;BME280;45043;51.068;7.026;2023-12-20T10:55:56;100457.31;;;2.62;70.81
59272;BME280;45043;51.068;7.026;2023-12-20T10:59:02;100442.94;;;2.66;70.59
59272;BME280;45043;51.068;7.026;2023-12-20T11:02:06;100464.72;;;2.67;70.94
59272;BME280;45043;51.068;7.026;2023-12-20T11:05:38;100473.88;;;2.63;70.83
59272;BME280;45043;51.068;7.026;2023-12-20T11:12:14;100461.47;;;2.55;71.27
59272;BME280;45043;51.068;7.026;2023-12-20T11:15:17;100457.88;;;2.56;70.88
59272;BME280;45043;51.068;7.026;2023-12-20T11:18:18;100469.88;;;2.59;70.81
59272;BME280;45043;51.068;7.026;2023-12-20T11:21:19;100447.94;;;2.60;71.33
59272;BME280;45043;51.068;7.026;2023-12-20T11:24:24;100462.41;;;2.64;71.14
59272;BME280;45043;51.068;7.026;2023-12-20T11:27:25;100456.50;;;2.62;71.06
59272;BME280;45043;51.068;7.026;2023-12-20T11:30:47;100477.19;;;2.65;71.20
59272;BME280;45043;51.068;7.026;2023-12-20T11:33:48;100448.06;;;2.68;71.44
59272;BME280;45043;51.068;7.026;2023-12-20T11:36:57;100443.47;;;2.70;70.79
59272;BME280;45043;51.068;7.026;2023-12-20T11:40:03;100429.38;;;2.71;71.17
59272;BME280;45043;51.068;7.026;2023-12-20T11:43:04;100416.56;;;2.68;70.68
59272;BME280;45043;51.068;7.026;2023-12-20T11:46:09;100449.28;;;2.64;71.26
59272;BME280;45043;51.068;7.026;2023-12-20T11:49:09;100431.38;;;2.59;70.95
59272;BME280;45043;51.068;7.026;2023-12-20T11:52:12;100435.50;;;2.62;71.46
59272;BME280;45043;51.068;7.026;2023-12-20T11:55:13;100422.22;;;2.63;71.46
59272;BME280;45043;51.068;7.026;2023-12-20T11:58:14;100430.78;;;2.65;71.52
59272;BME280;45043;51.068;7.026;2023-12-20T12:01:17;100476.91;;;2.68;71.40
59272;BME280;45043;51.068;7.026;2023-12-20T12:04:17;100428.72;;;2.69;71.75
59272;BME280;45043;51.068;7.026;2023-12-20T12:07:18;100432.31;;;2.68;71.65
59272;BME280;45043;51.068;7.026;2023-12-20T12:10:21;100449.28;;;2.64;71.82
59272;BME280;45043;51.068;7.026;2023-12-20T12:13:23;100422.09;;;2.65;71.96
59272;BME280;45043;51.068;7.026;2023-12-20T12:16:27;100422.78;;;2.67;72.47
59272;BME280;45043;51.068;7.026;2023-12-20T12:19:29;100400.16;;;2.66;71.96
59272;BME280;45043;51.068;7.026;2023-12-20T12:22:36;100412.97;;;2.69;72.07
59272;BME280;45043;51.068;7.026;2023-12-20T12:25:38;100401.78;;;2.67;72.14
59272;BME280;45043;51.068;7.026;2023-12-20T12:28:42;100390.47;;;2.66;72.78
59272;BME280;45043;51.068;7.026;2023-12-20T12:31:43;100412.28;;;2.67;72.76
59272;BME280;45043;51.068;7.026;2023-12-20T12:34:44;100425.56;;;2.65;72.64
59272;BME280;45043;51.068;7.026;2023-12-20T12:37:46;100386.75;;;2.69;72.43
59272;BME280;45043;51.068;7.026;2023-12-20T12:40:46;100371.66;;;2.71;72.58
59272;BME280;45043;51.068;7.026;2023-12-20T12:43:47;100404.13;;;2.70;72.88
59272;BME280;45043;51.068;7.026;2023-12-20T12:46:48;100385.22;;;2.66;72.96
59272;BME280;45043;51.068;7.026;2023-12-20T12:49:51;100384.78;;;2.71;73.20
59272;BME280;45043;51.068;7.026;2023-12-20T12:52:54;100382.41;;;2.78;72.54
59272;BME280;45043;51.068;7.026;2023-12-20T12:55:55;100374.81;;;2.74;72.72
59272;BME280;45043;51.068;7.026;2023-12-20T12:58:56;100386.28;;;2.73;72.75
59272;BME280;45043;51.068;7.026;2023-12-20T13:01:57;100384.50;;;2.74;73.24
59272;BME280;45043;51.068;7.026;2023-12-20T13:04:58;100357.97;;;2.77;73.07
59272;BME280;45043;51.068;7.026;2023-12-20T13:08:01;100378.50;;;2.82;72.97
59272;BME280;45043;51.068;7.026;2023-12-20T13:11:02;100350.34;;;2.84;73.26
59272;BME280;45043;51.068;7.026;2023-12-20T13:14:04;100342.00;;;2.88;72.73
59272;BME280;45043;51.068;7.026;2023-12-20T13:17:05;100362.00;;;2.89;72.96
59272;BME280;45043;51.068;7.026;2023-12-20T13:20:08;100350.84;;;2.87;72.93
59272;BME280;45043;51.068;7.026;2023-12-20T13:23:12;100361.34;;;2.87;73.04
59272;BME280;45043;51.068;7.026;2023-12-20T13:26:12;100350.34;;;2.84;72.70
59272;BME280;45043;51.068;7.026;2023-12-20T13:29:13;100342.16;;;2.87;73.04
59272;BME280;45043;51.068;7.026;2023-12-20T13:32:14;100315.25;;;2.85;73.05
59272;BME280;45043;51.068;7.026;2023-12-20T13:35:15;100298.69;;;2.84;73.22
59272;BME280;45043;51.068;7.026;2023-12-20T13:38:16;100314.44;;;2.84;73.27
59272;BME280;45043;51.068;7.026;2023-12-20T13:41:17;100323.94;;;2.85;73.81
59272;BME280;45043;51.068;7.026;2023-12-20T13:44:18;100312.09;;;2.81;73.79
59272;BME280;45043;51.068;7.026;2023-12-20T13:47:19;100320.66;;;2.83;73.68
59272;BME280;45043;51.068;7.026;2023-12-20T13:50:20;100300.03;;;2.88;73.85
59272;BME280;45043;51.068;7.026;2023-12-20T13:53:20;100303.34;;;2.90;73.61
59272;BME280;45043;51.068;7.026;2023-12-20T13:56:21;100295.59;;;2.89;73.64
59272;BME280;45043;51.068;7.026;2023-12-20T13:59:23;100279.19;;;2.87;73.99
59272;BME280;45043;51.068;7.026;2023-12-20T14:02:24;100302.34;;;2.91;73.83
59272;BME280;45043;51.068;7.026;2023-12-20T14:05:25;100286.44;;;2.93;73.89
59272;BME280;45043;51.068;7.026;2023-12-20T14:08:27;100296.00;;;2.94;74.10
59272;BME280;45043;51.068;7.026;2023-12-20T14:11:28;100266.28;;;2.93;73.96
59272;BME280;45043;51.068;7.026;2023-12-20T14:14:29;100278.28;;;2.96;74.23
59272;BME280;45043;51.068;7.026;2023-12-20T14:17:30;100289.59;;;2.96;73.49
59272;BME280;45043;51.068;7.026;2023-12-20T14:20:32;100325.06;;;3.00;73.96
59272;BME280;45043;51.068;7.026;2023-12-20T14:23:35;100274.25;;;3.02;74.18
59272;BME280;45043;51.068;7.026;2023-12-20T14:26:36;100332.28;;;2.98;74.07
59272;BME280;45043;51.068;7.026;2023-12-20T14:29:38;100269.00;;;3.02;74.06
59272;BME280;45043;51.068;7.026;2023-12-20T14:32:38;100277.53;;;3.04;74.11
59272;BME280;45043;51.068;7.026;2023-12-20T14:35:39;100281.44;;;2.99;73.78
59272;BME280;45043;51.068;7.026;2023-12-20T14:38:41;100259.63;;;2.99;74.37
59272;BME280;45043;51.068;7.026;2023-12-20T14:41:42;100275.06;;;3.02;74.41
59272;BME280;45043;51.068;7.026;2023-12-20T14:44:43;100269.50;;;3.05;74.14
59272;BME280;45043;51.068;7.026;2023-12-20T14:47:44;100294.47;;;3.09;74.09
59272;BME280;45043;51.068;7.026;2023-12-20T14:50:45;100271.38;;;3.13;74.38
59272;BME280;45043;51.068;7.026;2023-12-20T14:53:48;100282.00;;;3.11;74.08
59272;BME280;45043;51.068;7.026;2023-12-20T14:56:49;100275.94;;;3.11;74.05
59272;BME280;45043;51.068;7.026;2023-12-20T14:59:49;100271.38;;;3.13;73.97
59272;BME280;45043;51.068;7.026;2023-12-20T15:02:50;100281.56;;;3.16;74.30
59272;BME280;45043;51.068;7.026;2023-12-20T15:05:51;100287.34;;;3.19;74.17
59272;BME280;45043;51.068;7.026;2023-12-20T15:08:51;100261.56;;;3.23;74.37
59272;BME280;45043;51.068;7.026;2023-12-20T15:11:53;100300.13;;;3.22;74.13
59272;BME280;45043;51.068;7.026;2023-12-20T15:14:53;100291.97;;;3.25;74.09
59272;BME280;45043;51.068;7.026;2023-12-20T15:17:54;100267.34;;;3.27;74.97
59272;BME280;45043;51.068;7.026;2023-12-20T15:20:55;100275.38;;;3.25;74.40
59272;BME280;45043;51.068;7.026;2023-12-20T15:23:56;100253.56;;;3.24;74.22
59272;BME280;45043;51.068;7.026;2023-12-20T15:27:06;100258.50;;;3.28;74.46
59272;BME280;45043;51.068;7.026;2023-12-20T15:30:08;100260.16;;;3.29;74.58
59272;BME280;45043;51.068;7.026;2023-12-20T15:33:10;100267.88;;;3.30;74.42
59272;BME280;45043;51.068;7.026;2023-12-20T15:36:11;100279.88;;;3.33;74.27
59272;BME280;45043;51.068;7.026;2023-12-20T15:39:13;100269.19;;;3.34;74.72
59272;BME280;45043;51.068;7.026;2023-12-20T15:42:14;100269.19;;;3.34;74.53
59272;BME280;45043;51.068;7.026;2023-12-20T15:45:15;100272.81;;;3.33;74.30
59272;BME280;45043;51.068;7.026;2023-12-20T15:48:16;100277.25;;;3.33;74.44
59272;BME280;45043;51.068;7.026;2023-12-20T15:51:20;100277.53;;;3.30;74.64
59272;BME280;45043;51.068;7.026;2023-12-20T15:54:22;100246.03;;;3.30;75.08
59272;BME280;45043;51.068;7.026;2023-12-20T15:57:23;100278.38;;;3.30;75.03
59272;BME280;45043;51.068;7.026;2023-12-20T16:00:23;100262.94;;;3.27;75.09
59272;BME280;45043;51.068;7.026;2023-12-20T16:03:24;100274.41;;;3.26;74.90
59272;BME280;45043;51.068;7.026;2023-12-20T16:06:25;100241.59;;;3.30;74.85
59272;BME280;45043;51.068;7.026;2023-12-20T16:09:27;100256.53;;;3.30;75.10
59272;BME280;45043;51.068;7.026;2023-12-20T16:12:28;100243.94;;;3.33;75.42